ADDS METAR Data INFO
IDs: Format: Raw Decoded Include TAF

Data at: 0033 UTC 23 Feb 2018

KECS 230015Z AUTO 35007KT 10SM CLR M08/M13 A2998 RMK AO2
KECS 222355Z AUTO 32005KT 10SM CLR M07/M12 A2998 RMK AO2
KECS 222335Z AUTO 33007KT 10SM CLR M06/M12 A2997 RMK AO2
KECS 222315Z AUTO 31006KT 10SM CLR M06/M11 A2998 RMK AO2
KECS 222255Z AUTO 29007KT 10SM CLR M07/M11 A2998 RMK AO2
KECS 222235Z AUTO 28011KT 10SM CLR M05/M10 A2998 RMK AO2
KECS 222215Z AUTO 29006KT 10SM CLR M05/M11 A2999 RMK AO2
KECS 222155Z AUTO 28008KT 10SM CLR M06/M11 A2999 RMK AO2
KECS 222135Z AUTO 28008KT 10SM CLR M07/M11 A2999 RMK AO2
KECS 222115Z AUTO 28005KT 10SM CLR M07/M11 A2999 RMK AO2
KECS 222055Z AUTO 28005KT 10SM CLR M07/M11 A2999 RMK AO2
KECS 222035Z AUTO 00000KT 10SM CLR M07/M12 A3000 RMK AO2
KECS 222015Z AUTO 22003KT 10SM CLR M07/M12 A3001 RMK AO2
KECS 221955Z AUTO 24003KT 10SM CLR M06/M12 A3001 RMK AO2
KECS 221935Z AUTO 26003KT 10SM CLR M06/M12 A3002 RMK AO2
KECS 221915Z AUTO 29003KT 10SM CLR M06/M12 A3003 RMK AO2
KECS 221855Z AUTO 28006KT 10SM CLR M07/M12 A3004 RMK AO2
KECS 221835Z AUTO 00000KT 10SM CLR M08/M13 A3006 RMK AO2
KECS 221815Z AUTO 00000KT 10SM CLR M08/M13 A3007 RMK AO2
KECS 221755Z AUTO 00000KT 10SM CLR M08/M14 A3007 RMK AO2
KECS 221735Z AUTO 24003KT 10SM CLR M09/M13 A3007 RMK AO2
KECS 221715Z AUTO 29006KT 10SM CLR M10/M14 A3006 RMK AO2
KECS 221655Z AUTO 30005KT 10SM CLR M11/M15 A3006 RMK AO2
KECS 221635Z AUTO 30006KT 10SM CLR M11/M16 A3006 RMK AO2
KECS 221615Z AUTO 33003KT 10SM CLR M08/M15 A3006 RMK AO2
KECS 221555Z AUTO 35005KT 10SM CLR M11/M16 A3007 RMK AO2
KECS 221535Z AUTO 35005KT 10SM CLR M13/M17 A3007 RMK AO2
KECS 221515Z AUTO 00000KT 10SM CLR M15/M17 A3008 RMK AO2
KECS 221455Z AUTO 00000KT 10SM CLR M15/M18 A3008 RMK AO2
KECS 221435Z AUTO 00000KT 10SM CLR M16/M18 A3009 RMK AO2
KECS 221415Z AUTO 00000KT 10SM CLR M16/M18 A3009 RMK AO2
KECS 221355Z AUTO 00000KT 10SM CLR M17/M20 A3009 RMK AO2
KECS 221335Z AUTO 03003KT 10SM CLR M16/M19 A3009 RMK AO2
KECS 221315Z AUTO 36003KT 10SM CLR M17/M19 A3009 RMK AO2
KECS 221255Z AUTO 00000KT 10SM CLR M17/M19 A3009 RMK AO2
KECS 221235Z AUTO 00000KT 10SM CLR M18/M20 A3009 RMK AO2
KECS 221215Z AUTO 00000KT 10SM CLR M17/M20 A3009 RMK AO2
KECS 221155Z AUTO 00000KT 10SM CLR M17/M19 A3008 RMK AO2
KECS 221135Z AUTO 00000KT 10SM CLR M17/M20 A3008 RMK AO2
KECS 221115Z AUTO 03003KT 10SM CLR M16/M18 A3008 RMK AO2
KECS 221055Z AUTO 36005KT 10SM CLR M15/M18 A3008 RMK AO2
KECS 221035Z AUTO 36007KT 10SM CLR M16/M18 A3008 RMK AO2
KECS 221015Z AUTO 36005KT 10SM CLR M16/M18 A3009 RMK AO2
KECS 220955Z AUTO 36008KT 10SM CLR M17/M20 A3010 RMK AO2
KECS 220935Z AUTO 00000KT 10SM CLR M15/M18 A3010 RMK AO2
KECS 220915Z AUTO 00000KT 10SM CLR M15/M18 A3010 RMK AO2
KECS 220855Z AUTO 00000KT 10SM CLR M15/M18 A3011 RMK AO2
KECS 220835Z AUTO 00000KT 10SM CLR M15/M18 A3011 RMK AO2
KECS 220815Z AUTO 00000KT 10SM CLR M15/M18 A3012 RMK AO2
KECS 220755Z AUTO 00000KT 10SM CLR M13/M17 A3012 RMK AO2
KECS 220735Z AUTO 12009KT 10SM CLR M10/M15 A3012 RMK AO2
KECS 220715Z AUTO 11011KT 10SM CLR M10/M15 A3012 RMK AO2
KECS 220655Z AUTO 11009KT 10SM CLR M13/M16 A3013 RMK AO2
KECS 220635Z AUTO 00000KT 10SM CLR M17/M21 A3014 RMK AO2
KECS 220615Z AUTO 31003KT 10SM CLR M17/M21 A3015 RMK AO2
KECS 220555Z AUTO 00000KT 10SM CLR M16/M21 A3015 RMK AO2
KECS 220535Z AUTO 00000KT 10SM CLR M17/M21 A3015 RMK AO2
KECS 220515Z AUTO 12007KT 10SM CLR M17/M21 A3016 RMK AO2
KECS 220455Z AUTO 21003KT 10SM CLR M17/M21 A3016 RMK AO2
KECS 220435Z AUTO 28004KT 10SM CLR M14/M20 A3016 RMK AO2
KECS 220415Z AUTO 09009KT 10SM CLR M09/M17 A3016 RMK AO2
KECS 220355Z AUTO 10009KT 10SM CLR M08/M17 A3016 RMK AO2
KECS 220035Z AUTO 14004KT 10SM CLR M16/M20 A3017 RMK AO2
KECS 220015Z AUTO 09006KT 10SM CLR M16/M20 A3017 RMK AO2
KECS 212355Z AUTO 00000KT 10SM CLR M16/M20 A3017 RMK AO2
KECS 212335Z AUTO 13008KT 10SM CLR M15/M20 A3017 RMK AO2
KECS 212315Z AUTO 17005KT 10SM CLR M10/M17 A3019 RMK AO2
KECS 212255Z AUTO 14006KT 10SM CLR M08/M18 A3017 RMK AO2
KECS 212235Z AUTO 13007KT 10SM CLR M08/M18 A3017 RMK AO2
KECS 212215Z AUTO 13006KT 10SM CLR M07/M18 A3019 RMK AO2
KECS 212155Z AUTO 13007KT 10SM CLR M07/M17 A3017 RMK AO2
KECS 212135Z AUTO 14008KT 10SM CLR M08/M17 A3017 RMK AO2
KECS 212115Z AUTO 14006KT 10SM CLR M08/M17 A3017 RMK AO2
KECS 212055Z AUTO 16003KT 10SM CLR M12/M18 A3018 RMK AO2
KECS 212035Z AUTO 15007KT 10SM CLR M10/M17 A3019 RMK AO2
KECS 212015Z AUTO 15009KT 10SM CLR M11/M18 A3019 RMK AO2
KECS 211955Z AUTO 23003KT 10SM CLR M14/M20 A3020 RMK AO2
KECS 211935Z AUTO 00000KT 10SM CLR M16/M21 A3020 RMK AO2
KECS 211915Z AUTO 21004KT 10SM CLR M16/M22 A3021 RMK AO2
KECS 211835Z AUTO 14007KT 10SM CLR M17/M23 A3022 RMK AO2
KECS 211815Z AUTO 12003KT 10SM CLR M17/M24 A3023 RMK AO2
KECS 211755Z AUTO 14005KT 10SM CLR M17/M23 A3023 RMK AO2
KECS 211735Z AUTO 09003KT 10SM CLR M20/M25 A3023 RMK AO2
KECS 211715Z AUTO 20003KT 10SM CLR M20/M25 A3023 RMK AO2
KECS 211655Z AUTO 00000KT 10SM CLR M21/M26 A3022 RMK AO2
KECS 211635Z AUTO 28003KT 10SM CLR M22/M27 A3022 RMK AO2
KECS 211615Z AUTO 00000KT 10SM CLR M22/M28 A3023 RMK AO2
KECS 211555Z AUTO 00000KT 10SM CLR M21/M26 A3023 RMK AO2
KECS 211535Z AUTO 00000KT 10SM CLR M24/M28 A3024 RMK AO2
KECS 211515Z AUTO 00000KT 10SM CLR M27/M32 A3023 RMK AO2
KECS 211455Z AUTO 00000KT 10SM CLR M24/M28 A3022 RMK AO2
KECS 211435Z AUTO 34003KT 10SM CLR M25/M28 A3022 RMK AO2
KECS 211415Z AUTO 00000KT 10SM CLR M25/M28 A3021 RMK AO2
KECS 211355Z AUTO 00000KT 10SM CLR M24/M28 A3021 RMK AO2
KECS 211335Z AUTO 00000KT 10SM CLR M25/M28 A3020 RMK AO2
KECS 211315Z AUTO 00000KT 10SM CLR M26/M30 A3021 RMK AO2
KECS 211255Z AUTO 00000KT 10SM CLR M27/M31 A3020 RMK AO2